createdAt,value
2022-10-01T00:02:08.736Z,32.50
2022-10-01T00:04:39.085Z,36.20
2022-10-01T00:07:14.386Z,31.50
2022-10-01T00:12:10.100Z,29.90
2022-10-01T00:14:38.829Z,30.80
2022-10-01T00:17:07.233Z,33.20
2022-10-01T00:19:35.642Z,32.30
2022-10-01T00:22:03.904Z,33.80
2022-10-01T00:24:33.203Z,36.20
2022-10-01T00:27:01.602Z,28.20
2022-10-01T00:29:31.220Z,34.30
2022-10-01T00:31:59.628Z,34.90
2022-10-01T00:34:28.247Z,37.70
2022-10-01T00:36:56.558Z,37.60
2022-10-01T00:39:24.880Z,36.30
2022-10-01T00:41:54.603Z,34.20
2022-10-01T00:44:34.817Z,34.10
2022-10-01T00:47:10.358Z,38.80
2022-10-01T00:49:41.982Z,33.10
2022-10-01T00:52:15.737Z,37.00
2022-10-01T00:54:48.743Z,34.80
2022-10-01T00:57:22.507Z,38.10
2022-10-01T00:59:51.891Z,31.10
2022-10-01T01:02:20.318Z,31.60
2022-10-01T01:04:48.658Z,32.30
2022-10-01T01:07:17.481Z,34.40
2022-10-01T01:09:49.989Z,35.90
2022-10-01T01:12:33.486Z,36.70
2022-10-01T01:15:14.380Z,31.60
2022-10-01T01:17:52.383Z,32.30
2022-10-01T01:20:35.868Z,34.80
2022-10-01T01:23:16.698Z,32.40
2022-10-01T01:25:48.955Z,34.90
2022-10-01T01:28:24.078Z,30.70
2022-10-01T01:33:26.015Z,30.80
2022-10-01T01:35:59.300Z,32.10
2022-10-01T01:38:33.925Z,31.90
2022-10-01T01:41:04.123Z,33.60
2022-10-01T01:43:36.188Z,34.30
2022-10-01T01:46:08.184Z,35.50
2022-10-01T01:48:39.077Z,32.30
2022-10-01T01:51:12.320Z,36.80
2022-10-01T01:53:41.521Z,35.70
2022-10-01T01:56:10.650Z,35.00
2022-10-01T01:58:39.564Z,38.30
2022-10-01T02:01:28.283Z,34.10
2022-10-01T02:03:57.167Z,30.90
2022-10-01T02:06:42.230Z,32.90
2022-10-01T02:09:16.008Z,34.70
2022-10-01T02:11:52.656Z,38.80
2022-10-01T02:14:30.431Z,33.40
2022-10-01T02:17:05.676Z,35.00
2022-10-01T02:19:43.857Z,36.30
2022-10-01T02:22:16.241Z,36.60
2022-10-01T02:24:50.537Z,37.70
2022-10-01T02:27:31.589Z,37.90
2022-10-01T02:30:05.943Z,36.20
2022-10-01T02:32:37.027Z,37.80
2022-10-01T02:35:08.518Z,39.70
2022-10-01T02:37:38.651Z,33.60
2022-10-01T02:40:15.310Z,37.10
2022-10-01T02:42:46.498Z,35.10
2022-10-01T02:45:21.852Z,36.90
2022-10-01T02:47:55.130Z,39.30
2022-10-01T02:50:27.655Z,36.10
2022-10-01T02:53:02.404Z,40.60
2022-10-01T02:55:34.810Z,37.80
2022-10-01T02:58:03.141Z,34.80
2022-10-01T03:00:31.939Z,34.50
2022-10-01T03:03:00.373Z,39.50
2022-10-01T03:05:28.706Z,40.70
2022-10-01T03:07:57.058Z,37.20
2022-10-01T03:10:25.376Z,42.80
2022-10-01T03:12:54.067Z,36.30
2022-10-01T03:15:22.465Z,38.80
2022-10-01T03:17:52.920Z,39.30
2022-10-01T03:20:22.172Z,37.90
2022-10-01T03:22:50.767Z,36.80
2022-10-01T03:25:19.269Z,36.00
2022-10-01T03:27:47.677Z,35.80
2022-10-01T03:30:16.287Z,35.50
2022-10-01T03:32:45.045Z,37.20
2022-10-01T03:35:13.467Z,38.40
2022-10-01T03:37:41.873Z,36.80
2022-10-01T03:40:10.658Z,40.50
2022-10-01T03:42:38.919Z,36.80
2022-10-01T03:45:08.854Z,41.40
2022-10-01T03:47:37.062Z,49.20
2022-10-01T03:50:07.338Z,40.70
2022-10-01T03:52:35.503Z,38.90
2022-10-01T03:55:05.229Z,40.90
2022-10-01T03:57:33.660Z,37.90
2022-10-01T04:00:03.240Z,38.10
2022-10-01T04:02:39.776Z,39.60
2022-10-01T04:05:09.392Z,39.20
2022-10-01T04:07:37.541Z,38.50
2022-10-01T04:10:07.885Z,38.40
2022-10-01T04:12:36.534Z,35.20
2022-10-01T04:15:05.449Z,36.80
2022-10-01T04:17:33.741Z,36.20
2022-10-01T04:20:02.558Z,36.80
2022-10-01T04:22:30.840Z,39.00
2022-10-01T04:24:59.097Z,46.70
2022-10-01T04:27:27.512Z,36.90
2022-10-01T04:29:55.744Z,32.40
2022-10-01T04:32:24.335Z,39.40
2022-10-01T04:34:55.657Z,37.70
2022-10-01T04:37:25.225Z,36.40
2022-10-01T04:39:54.134Z,34.00
2022-10-01T04:42:22.904Z,35.00
2022-10-01T04:44:51.361Z,37.10
2022-10-01T04:47:19.680Z,34.80
2022-10-01T04:49:48.025Z,36.90
2022-10-01T04:52:16.670Z,36.60
2022-10-01T04:54:44.988Z,38.30
2022-10-01T04:57:13.322Z,35.90
2022-10-01T04:59:42.068Z,32.20
2022-10-01T05:02:10.807Z,34.60
2022-10-01T05:04:39.244Z,36.60
2022-10-01T05:07:07.594Z,38.90
2022-10-01T05:09:35.908Z,34.30
2022-10-01T05:12:04.160Z,37.00
2022-10-01T05:14:35.617Z,33.00
2022-10-01T05:17:04.560Z,33.60
2022-10-01T05:19:32.918Z,35.50
2022-10-01T05:22:01.122Z,36.60
2022-10-01T05:24:29.240Z,40.60
2022-10-01T05:26:57.931Z,37.60
2022-10-01T05:29:26.188Z,30.30
2022-10-01T05:31:54.468Z,36.90
2022-10-01T05:34:22.702Z,35.40
2022-10-01T05:36:50.924Z,32.70
2022-10-01T05:39:19.195Z,29.90
2022-10-01T05:41:47.407Z,29.50
2022-10-01T05:44:16.094Z,30.70
2022-10-01T05:46:44.221Z,32.80
2022-10-01T05:49:12.384Z,36.10
2022-10-01T05:51:40.489Z,35.30
2022-10-01T05:54:08.890Z,29.80
2022-10-01T05:56:37.246Z,31.90
2022-10-01T05:59:06.378Z,28.90
2022-10-01T06:01:39.642Z,33.60
2022-10-01T06:04:10.306Z,37.30
2022-10-01T06:06:38.863Z,26.50
2022-10-01T06:09:07.142Z,30.30
2022-10-01T06:11:37.745Z,29.70
2022-10-01T06:14:06.561Z,29.90
2022-10-01T06:16:34.929Z,28.80
2022-10-01T06:19:06.199Z,30.70
2022-10-01T06:21:37.652Z,29.00
2022-10-01T06:24:06.490Z,29.60
2022-10-01T06:26:34.726Z,35.40
2022-10-01T06:29:03.234Z,32.00
2022-10-01T06:31:31.582Z,34.10
2022-10-01T06:34:00.273Z,30.50
2022-10-01T06:36:29.760Z,32.20
2022-10-01T06:38:58.097Z,29.40
2022-10-01T06:41:26.350Z,27.00
2022-10-01T06:43:54.898Z,27.60
2022-10-01T06:46:23.137Z,28.20
2022-10-01T06:48:52.753Z,26.10
2022-10-01T06:51:41.174Z,26.20
2022-10-01T06:54:10.003Z,22.10
2022-10-01T06:56:38.341Z,20.20
2022-10-01T06:59:06.640Z,20.20
2022-10-01T07:01:35.865Z,20.60
2022-10-01T07:04:04.734Z,17.50
2022-10-01T07:06:33.099Z,18.00
2022-10-01T07:09:01.374Z,17.50
2022-10-01T07:11:29.864Z,19.90
2022-10-01T07:14:00.518Z,22.10
2022-10-01T07:16:29.079Z,22.00
2022-10-01T07:18:59.108Z,21.00
2022-10-01T07:21:27.680Z,22.00
2022-10-01T07:23:58.594Z,19.90
2022-10-01T07:26:27.336Z,16.60
2022-10-01T07:28:55.987Z,19.70
2022-10-01T07:31:24.611Z,19.10
2022-10-01T07:33:57.996Z,24.30
2022-10-01T07:36:26.705Z,22.60
2022-10-01T07:38:55.314Z,18.20
2022-10-01T07:41:24.386Z,18.50
2022-10-01T07:43:52.726Z,16.20
2022-10-01T07:46:21.913Z,19.40
2022-10-01T07:48:50.528Z,17.90
2022-10-01T07:51:19.156Z,16.40
2022-10-01T07:53:47.667Z,14.60
2022-10-01T07:56:17.041Z,15.70
2022-10-01T07:58:45.835Z,15.50
2022-10-01T08:01:15.273Z,13.70
2022-10-01T08:03:45.078Z,13.90
2022-10-01T08:06:19.004Z,15.00
2022-10-01T08:08:50.828Z,16.30
2022-10-01T08:11:19.261Z,14.10
2022-10-01T08:13:47.738Z,17.20
2022-10-01T08:16:16.350Z,15.90
2022-10-01T08:18:45.139Z,19.90
2022-10-01T08:21:13.821Z,19.60
2022-10-01T08:23:42.528Z,16.40
2022-10-01T08:26:11.717Z,20.00
2022-10-01T08:28:40.483Z,18.20
2022-10-01T08:31:09.608Z,20.30
2022-10-01T08:33:39.084Z,17.80
2022-10-01T08:36:08.250Z,18.20
2022-10-01T08:38:37.310Z,14.70
2022-10-01T08:41:30.136Z,23.40
2022-10-01T08:44:01.730Z,17.00
2022-10-01T08:46:34.848Z,18.60
2022-10-01T08:49:12.199Z,17.90
2022-10-01T08:51:46.783Z,19.30
2022-10-01T08:56:49.523Z,20.90
2022-10-01T08:59:29.717Z,19.20
2022-10-01T09:02:00.638Z,18.70
2022-10-01T09:04:29.970Z,20.60
2022-10-01T09:07:07.197Z,20.60
2022-10-01T09:09:44.774Z,18.50
2022-10-01T09:12:31.241Z,20.10
2022-10-01T09:15:14.934Z,19.10
2022-10-01T09:17:56.796Z,20.90
2022-10-01T09:20:30.691Z,15.80
2022-10-01T09:23:14.221Z,16.60
2022-10-01T09:25:45.313Z,15.40
2022-10-01T09:28:16.847Z,18.80
2022-10-01T09:30:50.655Z,18.20
2022-10-01T09:33:25.401Z,20.20
2022-10-01T09:36:01.434Z,12.60
2022-10-01T09:38:36.455Z,14.80
2022-10-01T09:43:35.454Z,11.20
2022-10-01T09:46:06.390Z,13.50
2022-10-01T09:48:41.403Z,15.40
2022-10-01T09:51:14.302Z,15.00
2022-10-01T09:53:46.633Z,15.50
2022-10-01T09:56:23.505Z,16.40
2022-10-01T09:58:58.559Z,15.80
2022-10-01T10:03:58.576Z,21.30
2022-10-01T10:06:30.523Z,22.20
2022-10-01T10:09:00.538Z,20.50
2022-10-01T10:11:31.041Z,18.80
2022-10-01T10:14:02.906Z,24.50
2022-10-01T10:16:35.448Z,18.20
2022-10-01T10:19:09.665Z,19.80
2022-10-01T10:21:38.150Z,19.00
2022-10-01T10:24:22.436Z,16.10
2022-10-01T10:26:55.519Z,13.30
2022-10-01T10:29:29.819Z,13.60
2022-10-01T10:31:58.959Z,14.00
2022-10-01T10:34:32.905Z,13.40
2022-10-01T10:37:05.098Z,14.60
2022-10-01T10:39:37.983Z,16.40
2022-10-01T10:42:07.940Z,17.50
2022-10-01T10:44:39.123Z,17.60
2022-10-01T10:47:12.932Z,18.30
2022-10-01T10:49:45.738Z,17.40
2022-10-01T10:52:24.737Z,20.90
2022-10-01T10:54:53.324Z,17.50
2022-10-01T10:57:27.329Z,21.20
2022-10-01T11:00:01.011Z,21.60
2022-10-01T11:02:31.304Z,22.50
2022-10-01T11:05:03.280Z,22.00
2022-10-01T11:07:32.754Z,20.70
2022-10-01T11:10:15.678Z,22.50
2022-10-01T11:12:56.898Z,22.90
2022-10-01T11:15:42.736Z,19.50
2022-10-01T11:18:25.369Z,19.20
2022-10-01T11:21:08.992Z,17.70
2022-10-01T11:23:57.777Z,14.10
2022-10-01T11:26:33.938Z,15.30
2022-10-01T11:29:15.988Z,19.80
2022-10-01T11:31:52.119Z,17.70
2022-10-01T11:34:37.399Z,23.10
2022-10-01T11:37:19.849Z,20.10
2022-10-01T11:39:51.768Z,19.00
2022-10-01T11:42:27.207Z,19.70
2022-10-01T11:45:04.064Z,20.60
2022-10-01T11:47:37.334Z,16.60
2022-10-01T11:50:13.040Z,19.80
2022-10-01T11:52:46.322Z,17.10
2022-10-01T11:55:38.401Z,23.10
2022-10-01T11:58:35.908Z,14.60
2022-10-01T12:01:11.131Z,14.20
2022-10-01T12:03:50.802Z,15.10
2022-10-01T12:06:26.098Z,13.50
2022-10-01T12:09:02.224Z,16.60
2022-10-01T12:11:40.731Z,14.80
2022-10-01T12:14:14.039Z,17.80
2022-10-01T12:16:49.862Z,16.10
2022-10-01T12:19:24.192Z,14.30
2022-10-01T12:21:57.366Z,18.40
2022-10-01T12:24:30.681Z,14.00
2022-10-01T12:27:08.454Z,15.90
2022-10-01T12:29:47.661Z,18.60
2022-10-01T12:32:27.202Z,19.70
2022-10-01T12:35:07.598Z,15.00
2022-10-01T12:37:52.529Z,15.00
2022-10-01T12:40:30.941Z,14.90
2022-10-01T12:43:20.152Z,14.50
2022-10-01T12:45:55.501Z,17.20
2022-10-01T12:48:30.609Z,14.10
2022-10-01T12:53:44.331Z,12.60
2022-10-01T12:56:21.049Z,13.90
2022-10-01T12:59:05.934Z,13.00
2022-10-01T13:01:50.255Z,13.30
2022-10-01T13:04:50.203Z,12.40
2022-10-01T13:07:35.747Z,11.70
2022-10-01T13:12:57.142Z,12.60
2022-10-01T13:15:29.736Z,12.20
2022-10-01T13:18:06.053Z,12.80
2022-10-01T13:20:40.647Z,10.50
2022-10-01T13:23:15.954Z,13.10
2022-10-01T13:25:51.752Z,13.50
2022-10-01T13:28:28.656Z,16.00
2022-10-01T13:31:10.385Z,13.10
2022-10-01T13:33:38.980Z,13.00
2022-10-01T13:36:09.988Z,10.30
2022-10-01T13:38:43.363Z,9.40
2022-10-01T13:41:21.437Z,11.10
2022-10-01T13:43:56.833Z,9.50
2022-10-01T13:46:29.851Z,9.30
2022-10-01T13:49:03.170Z,8.20
2022-10-01T13:51:39.564Z,7.10
2022-10-01T13:54:19.665Z,9.70
2022-10-01T13:56:47.983Z,9.70
2022-10-01T13:59:31.007Z,7.70
2022-10-01T14:01:59.844Z,10.30
2022-10-01T14:04:37.652Z,9.40
2022-10-01T14:07:15.691Z,8.70
2022-10-01T14:09:48.508Z,10.70
2022-10-01T14:12:39.600Z,7.60
2022-10-01T14:15:35.273Z,7.40
2022-10-01T14:18:09.461Z,7.70
2022-10-01T14:20:52.065Z,7.60
2022-10-01T14:23:28.979Z,7.70
2022-10-01T14:26:03.620Z,8.40
2022-10-01T14:28:42.656Z,8.70
2022-10-01T14:31:22.104Z,8.90
2022-10-01T14:34:21.694Z,9.00
2022-10-01T14:36:52.060Z,8.20
2022-10-01T14:39:21.680Z,10.40
2022-10-01T14:41:51.813Z,11.40
2022-10-01T14:44:24.133Z,8.10
2022-10-01T14:46:53.761Z,10.30
2022-10-01T14:49:25.922Z,9.30
2022-10-01T14:51:59.569Z,11.00
2022-10-01T14:54:28.777Z,11.50
2022-10-01T14:56:57.477Z,13.30
2022-10-01T14:59:34.321Z,11.50
2022-10-01T15:02:12.860Z,10.70
2022-10-01T15:04:46.830Z,14.70
2022-10-01T15:07:16.659Z,12.60
2022-10-01T15:09:45.717Z,13.40
2022-10-01T15:12:15.514Z,12.60
2022-10-01T15:14:45.090Z,13.10
2022-10-01T15:17:21.605Z,14.60
2022-10-01T15:19:53.427Z,13.40
2022-10-01T15:22:26.849Z,13.80
2022-10-01T15:25:00.235Z,14.70
2022-10-01T15:27:28.802Z,21.90
2022-10-01T15:29:58.660Z,14.10
2022-10-01T15:32:28.364Z,16.60
2022-10-01T15:34:59.474Z,15.90
2022-10-01T15:37:31.721Z,15.20
2022-10-01T15:40:01.642Z,22.70
2022-10-01T15:42:32.262Z,18.70
2022-10-01T15:45:24.520Z,17.00
2022-10-01T15:47:56.453Z,15.90
2022-10-01T15:50:28.248Z,20.00
2022-10-01T15:53:02.866Z,18.80
2022-10-01T15:55:34.704Z,19.30
2022-10-01T15:58:20.175Z,17.60
2022-10-01T16:01:03.314Z,18.50
2022-10-01T16:03:34.410Z,21.00
2022-10-01T16:06:05.639Z,18.70
2022-10-01T16:08:44.983Z,18.20
2022-10-01T16:11:19.563Z,20.90
2022-10-01T16:13:50.382Z,18.00
2022-10-01T16:16:27.615Z,22.50
2022-10-01T16:18:59.638Z,19.00
2022-10-01T16:21:28.925Z,21.50
2022-10-01T16:23:57.185Z,18.50
2022-10-01T16:26:36.648Z,22.60
2022-10-01T16:29:22.034Z,19.00
2022-10-01T16:31:51.094Z,24.40
2022-10-01T16:34:20.587Z,19.00
2022-10-01T16:36:49.656Z,18.80
2022-10-01T16:39:18.067Z,21.00
2022-10-01T16:42:01.396Z,22.90
2022-10-01T16:44:39.921Z,19.90
2022-10-01T16:47:11.452Z,23.70
2022-10-01T16:49:40.885Z,20.80
2022-10-01T16:52:15.966Z,24.50
2022-10-01T16:54:44.932Z,18.40
2022-10-01T16:57:14.665Z,23.30
2022-10-01T16:59:43.472Z,18.70
2022-10-01T17:02:14.327Z,17.80
2022-10-01T17:04:42.477Z,19.40
2022-10-01T17:07:10.660Z,27.00
2022-10-01T17:09:38.776Z,18.90
2022-10-01T17:12:07.194Z,19.60
2022-10-01T17:14:35.337Z,20.30
2022-10-01T17:17:03.725Z,20.90
2022-10-01T17:19:32.036Z,20.90
2022-10-01T17:22:07.297Z,22.40
2022-10-01T17:24:35.620Z,19.30
2022-10-01T17:27:03.970Z,17.70
2022-10-01T17:29:32.922Z,19.30
2022-10-01T17:32:01.328Z,24.10
2022-10-01T17:34:30.266Z,19.70
2022-10-01T17:36:59.605Z,20.30
2022-10-01T17:39:28.613Z,21.50
2022-10-01T17:41:57.062Z,20.90
2022-10-01T17:44:26.232Z,21.10
2022-10-01T17:46:54.529Z,25.70
2022-10-01T17:49:23.816Z,47.40
2022-10-01T17:51:52.854Z,24.60
2022-10-01T17:54:21.462Z,23.60
2022-10-01T17:56:52.396Z,23.40
2022-10-01T17:59:30.210Z,27.20
2022-10-01T18:01:59.126Z,26.30
2022-10-01T18:04:27.697Z,20.30
2022-10-01T18:06:59.730Z,25.20
2022-10-01T18:09:28.394Z,26.80
2022-10-01T18:11:56.962Z,20.30
2022-10-01T18:14:25.565Z,25.60
2022-10-01T18:16:55.222Z,25.40
2022-10-01T18:19:52.794Z,27.10
2022-10-01T18:22:19.324Z,27.10
2022-10-01T18:24:48.147Z,27.00
2022-10-01T18:27:16.677Z,26.70
2022-10-01T18:29:45.313Z,26.10
2022-10-01T18:32:19.350Z,27.70
2022-10-01T18:34:52.341Z,27.50
2022-10-01T18:37:30.032Z,27.40
2022-10-01T18:40:06.982Z,30.20
2022-10-01T18:42:45.869Z,24.60
2022-10-01T18:45:23.777Z,27.70
2022-10-01T18:48:06.642Z,29.00
2022-10-01T18:50:43.118Z,31.80
2022-10-01T18:53:26.572Z,32.90
2022-10-01T18:56:22.800Z,35.90
2022-10-01T18:59:29.996Z,35.20
2022-10-01T19:02:19.809Z,29.50
2022-10-01T19:05:13.859Z,30.80
2022-10-01T19:08:00.070Z,29.50
2022-10-01T19:10:37.583Z,35.50
2022-10-01T19:13:17.114Z,31.60
2022-10-01T19:16:02.289Z,30.30
2022-10-01T19:18:50.276Z,29.10
2022-10-01T19:21:27.099Z,30.70
2022-10-01T19:24:36.166Z,34.10
2022-10-01T19:27:17.804Z,27.30
2022-10-01T19:30:06.561Z,28.20
2022-10-01T19:32:47.081Z,29.00
2022-10-01T19:35:22.479Z,30.10
2022-10-01T19:37:56.582Z,32.80
2022-10-01T19:40:33.031Z,33.90
2022-10-01T19:43:11.139Z,30.90
2022-10-01T19:45:48.183Z,31.50
2022-10-01T19:48:21.524Z,31.70
2022-10-01T19:50:59.538Z,30.20
2022-10-01T19:53:32.039Z,28.60
2022-10-01T19:56:02.850Z,32.60
2022-10-01T19:58:39.048Z,29.40
2022-10-01T20:01:13.643Z,30.20
2022-10-01T20:03:48.707Z,33.00
2022-10-01T20:06:26.110Z,27.30
2022-10-01T20:08:58.473Z,33.20
2022-10-01T20:11:31.798Z,36.90
2022-10-01T20:14:36.039Z,29.50
2022-10-01T20:17:11.795Z,33.90
2022-10-01T20:19:50.666Z,35.30
2022-10-01T20:22:40.630Z,38.70
2022-10-01T20:25:16.188Z,33.60
2022-10-01T20:27:57.256Z,36.30
2022-10-01T20:30:30.132Z,34.80
2022-10-01T20:33:08.331Z,36.10
2022-10-01T20:35:56.574Z,33.00
2022-10-01T20:38:33.397Z,32.40
2022-10-01T20:41:11.972Z,35.50
2022-10-01T20:43:45.464Z,35.40
2022-10-01T20:46:19.458Z,36.70
2022-10-01T20:48:52.287Z,35.40
2022-10-01T20:51:28.755Z,38.60
2022-10-01T20:54:05.915Z,37.50
2022-10-01T20:56:39.388Z,36.70
2022-10-01T20:59:16.791Z,32.50
2022-10-01T21:02:08.047Z,31.60
2022-10-01T21:04:44.263Z,36.00
2022-10-01T21:07:24.783Z,30.70
2022-10-01T21:10:03.312Z,38.10
2022-10-01T21:12:40.199Z,31.60
2022-10-01T21:15:14.038Z,34.80
2022-10-01T21:17:53.102Z,37.30
2022-10-01T21:20:39.302Z,41.80
2022-10-01T21:23:25.572Z,37.30
2022-10-01T21:26:12.517Z,35.50
2022-10-01T21:28:55.989Z,43.90
2022-10-01T21:31:41.537Z,37.40
2022-10-01T21:37:09.949Z,34.10
2022-10-01T21:39:48.481Z,41.10
2022-10-01T21:42:21.627Z,36.40
2022-10-01T21:45:21.476Z,33.30
2022-10-01T21:48:02.632Z,36.90
2022-10-01T21:50:44.191Z,33.40
2022-10-01T21:53:49.463Z,31.00
2022-10-01T21:56:30.368Z,34.40
2022-10-01T21:59:07.345Z,35.50
2022-10-01T22:02:02.316Z,33.80
2022-10-01T22:04:39.245Z,29.40
2022-10-01T22:07:19.361Z,28.10
2022-10-01T22:10:03.519Z,29.40
2022-10-01T22:12:37.256Z,28.70
2022-10-01T22:15:19.414Z,28.60
2022-10-01T22:17:51.069Z,30.50
2022-10-01T22:20:23.469Z,29.10
2022-10-01T22:22:54.827Z,26.80
2022-10-01T22:25:23.660Z,30.90
2022-10-01T22:27:59.230Z,24.90
2022-10-01T22:30:32.328Z,27.10
2022-10-01T22:33:05.961Z,27.50
2022-10-01T22:35:43.817Z,31.60
2022-10-01T22:38:17.217Z,22.70
2022-10-01T22:40:50.708Z,24.50
2022-10-01T22:43:19.054Z,23.80
2022-10-01T22:46:07.108Z,21.90
2022-10-01T22:48:48.301Z,19.70
2022-10-01T22:51:43.633Z,25.20
2022-10-01T22:54:30.965Z,22.00
2022-10-01T22:57:12.079Z,19.40
2022-10-01T22:59:51.270Z,16.70
2022-10-01T23:02:28.559Z,16.90
2022-10-01T23:05:09.152Z,18.00
2022-10-01T23:07:45.637Z,16.00
2022-10-01T23:10:21.273Z,15.30
2022-10-01T23:12:59.366Z,14.40
2022-10-01T23:15:38.967Z,13.60
2022-10-01T23:18:16.213Z,13.20
2022-10-01T23:20:54.460Z,11.30
2022-10-01T23:23:30.963Z,12.40
2022-10-01T23:26:18.286Z,11.40
2022-10-01T23:29:00.592Z,12.30
2022-10-01T23:31:36.869Z,11.20
2022-10-01T23:34:19.397Z,11.80
2022-10-01T23:36:53.235Z,9.40
2022-10-01T23:39:43.165Z,14.00
2022-10-01T23:42:22.306Z,11.10
2022-10-01T23:44:58.005Z,10.50
2022-10-01T23:47:33.224Z,13.10
2022-10-01T23:52:38.652Z,9.50
2022-10-01T23:55:35.689Z,13.40
2022-10-01T23:58:07.788Z,9.80
